Time;durP1;ratioP1;P1;durP2;ratioP2;P2;SDS_P1;SDS_P2;PMS_P1;PMS_P2;Temp;Humidity;BMP_temperature;BMP_pressure;BME280_temperature;BME280_humidity;BME280_pressure;Samples;Min_cycle;Max_cycle;Signal;HPM_P1;HPM_P2
2023/06/23 00:01:09;0.00;0.00;0.62;0.00;0.00;0.62;2.63;2.43;;;33.50;28.50;;;;;;2278506;60;20385;-65
2023/06/23 00:03:54;0.00;0.00;0.62;0.00;0.00;0.62;3.70;3.03;;;33.50;28.50;;;;;;2278188;60;20763;-65
2023/06/23 00:06:39;0.00;0.00;0.62;0.00;0.00;0.62;3.17;2.87;;;33.50;28.50;;;;;;2278575;60;20361;-65
2023/06/23 00:09:24;0.00;0.00;0.62;0.00;0.00;0.62;3.50;2.20;;;33.50;28.50;;;;;;2277452;60;20376;-65
2023/06/23 00:12:10;0.00;0.00;0.62;0.00;0.00;0.62;3.47;2.90;;;33.50;28.50;;;;;;2278280;60;20411;-65
2023/06/23 00:14:55;0.00;0.00;0.62;0.00;0.00;0.62;2.93;2.63;;;33.50;28.50;;;;;;2278486;60;20364;-65
2023/06/23 00:17:44;0.00;0.00;0.62;0.00;0.00;0.62;3.40;2.80;;;33.50;28.50;;;;;;2277848;60;20361;-65
2023/06/23 00:20:29;0.00;0.00;0.62;0.00;0.00;0.62;3.90;2.60;;;33.50;28.60;;;;;;2278069;60;20369;-65
2023/06/23 00:23:14;0.00;0.00;0.62;0.00;0.00;0.62;2.83;2.57;;;33.50;28.60;;;;;;2278159;60;20716;-65
2023/06/23 00:25:59;0.00;0.00;0.62;0.00;0.00;0.62;2.40;2.13;;;33.50;28.60;;;;;;2278088;60;21325;-65
2023/06/23 00:28:45;0.00;0.00;0.62;0.00;0.00;0.62;2.80;2.20;;;33.50;28.60;;;;;;2274755;60;20361;-65
2023/06/23 00:31:31;0.00;0.00;0.62;0.00;0.00;0.62;4.43;2.40;;;33.40;29.10;;;;;;2278242;60;20354;-65
2023/06/23 00:34:16;0.00;0.00;0.62;0.00;0.00;0.62;3.27;2.23;;;33.40;29.10;;;;;;2274928;60;21176;-65
2023/06/23 00:37:01;0.00;0.00;0.62;0.00;0.00;0.62;2.50;2.00;;;33.40;28.50;;;;;;2275041;60;20443;-65
2023/06/23 00:39:46;0.00;0.00;0.62;0.00;0.00;0.62;2.20;1.80;;;33.40;28.50;;;;;;2270520;60;20427;-65
2023/06/23 00:42:42;0.00;0.00;0.62;0.00;0.00;0.62;2.90;2.37;;;33.40;28.50;;;;;;2276263;60;20762;-64
2023/06/23 00:45:28;0.00;0.00;0.62;0.00;0.00;0.62;2.80;2.40;;;33.40;28.50;;;;;;2272958;60;20906;-65
2023/06/23 00:48:14;0.00;0.00;0.62;0.00;0.00;0.62;3.80;2.73;;;33.40;28.60;;;;;;2276213;60;20408;-64
2023/06/23 00:50:58;0.00;0.00;0.62;0.00;0.00;0.62;2.87;2.30;;;33.40;28.60;;;;;;2272999;60;20972;-64
2023/06/23 00:53:48;0.00;0.00;0.62;0.00;0.00;0.62;3.00;2.40;;;33.40;28.60;;;;;;2278180;60;20413;-65
2023/06/23 00:56:33;0.00;0.00;0.62;0.00;0.00;0.62;2.43;2.00;;;33.40;28.70;;;;;;2275176;60;20373;-65
2023/06/23 00:59:18;0.00;0.00;0.62;0.00;0.00;0.62;4.40;2.67;;;33.40;28.60;;;;;;2278097;60;20775;-67
2023/06/23 01:02:06;0.00;0.00;0.62;0.00;0.00;0.62;2.77;2.47;;;33.30;28.60;;;;;;2278500;60;20373;-66
2023/06/23 01:04:51;0.00;0.00;0.62;0.00;0.00;0.62;3.70;2.60;;;33.40;28.70;;;;;;2275294;60;20353;-65
2023/06/23 01:07:44;0.00;0.00;0.62;0.00;0.00;0.62;2.50;2.00;;;33.30;28.60;;;;;;2278631;60;20415;-64
2023/06/23 01:10:36;0.00;0.00;0.62;0.00;0.00;0.62;4.10;2.63;;;33.30;28.60;;;;;;2274655;60;20396;-65
2023/06/23 01:13:34;0.00;0.00;0.62;0.00;0.00;0.62;3.33;2.80;;;33.30;28.60;;;;;;2275083;60;20423;-65
2023/06/23 01:16:26;0.00;0.00;0.62;0.00;0.00;0.62;3.30;2.67;;;33.30;28.60;;;;;;2272104;60;20840;-65
2023/06/23 01:19:22;0.00;0.00;0.62;0.00;0.00;0.62;2.80;2.50;;;33.30;28.70;;;;;;2278025;60;20353;-65
2023/06/23 01:22:21;0.00;0.00;0.62;0.00;0.00;0.62;3.10;2.80;;;33.30;28.70;;;;;;2275021;60;21021;-65
2023/06/23 01:25:21;0.00;0.00;0.62;0.00;0.00;0.62;4.33;2.80;;;33.30;28.70;;;;;;2275196;60;20407;-65
2023/06/23 01:28:30;0.00;0.00;0.62;0.00;0.00;0.62;2.70;2.50;;;33.20;28.70;;;;;;2278396;60;20399;-65
2023/06/23 01:31:23;0.00;0.00;0.62;0.00;0.00;0.62;3.87;3.17;;;33.20;28.70;;;;;;2274971;60;20385;-65
2023/06/23 01:34:10;0.00;0.00;0.62;0.00;0.00;0.62;3.10;2.77;;;33.20;28.70;;;;;;2278082;60;20397;-65
2023/06/23 01:37:00;0.00;0.00;0.62;0.00;0.00;0.62;3.40;3.10;;;33.20;28.70;;;;;;2275207;60;20383;-64
2023/06/23 01:39:51;0.00;0.00;0.62;0.00;0.00;0.62;3.83;3.43;;;33.20;28.70;;;;;;2274819;60;20449;-64
2023/06/23 01:42:43;0.00;0.00;0.62;0.00;0.00;0.62;3.20;2.87;;;33.20;28.80;;;;;;2278397;60;20356;-64
2023/06/23 01:45:29;0.00;0.00;0.62;0.00;0.00;0.62;5.47;2.90;;;33.20;28.80;;;;;;2277882;60;20361;-65
2023/06/23 01:48:15;0.00;0.00;0.62;0.00;0.00;0.62;4.00;2.80;;;33.10;28.70;;;;;;2274713;60;20387;-65
2023/06/23 01:51:02;0.00;0.00;0.62;0.00;0.00;0.62;5.40;3.20;;;33.20;28.80;;;;;;2278193;60;20381;-65
2023/06/23 01:53:48;0.00;0.00;0.62;0.00;0.00;0.62;3.00;2.70;;;33.20;28.80;;;;;;2274566;60;20385;-65
2023/06/23 01:56:35;0.00;0.00;0.62;0.00;0.00;0.62;3.17;2.87;;;33.20;28.80;;;;;;2277821;60;20438;-65
2023/06/23 01:59:21;0.00;0.00;0.62;0.00;0.00;0.62;4.07;3.20;;;33.10;28.80;;;;;;2274476;60;20365;-65
2023/06/23 02:02:10;0.00;0.00;0.62;0.00;0.00;0.62;4.10;3.40;;;33.10;28.80;;;;;;2277553;60;20353;-65
2023/06/23 02:04:58;0.00;0.00;0.62;0.00;0.00;0.62;3.70;2.70;;;33.10;28.80;;;;;;2275074;60;20362;-65
2023/06/23 02:07:47;0.00;0.00;0.62;0.00;0.00;0.62;3.33;3.03;;;33.10;28.80;;;;;;2275054;60;20431;-65
2023/06/23 02:10:34;0.00;0.00;0.62;0.00;0.00;0.62;3.23;2.93;;;33.10;28.80;;;;;;2277461;60;20370;-65
2023/06/23 02:13:22;0.00;0.00;0.62;0.00;0.00;0.62;3.83;3.53;;;33.10;28.80;;;;;;2272762;60;20934;-65
2023/06/23 02:16:09;0.00;0.00;0.62;0.00;0.00;0.62;4.00;3.37;;;33.10;28.80;;;;;;2278959;60;20810;-65
2023/06/23 02:18:57;0.00;0.00;0.62;0.00;0.00;0.62;4.20;3.80;;;33.10;28.80;;;;;;2278238;60;20676;-65
2023/06/23 02:21:43;0.00;0.00;0.62;0.00;0.00;0.62;4.07;3.70;;;33.10;28.90;;;;;;2275517;60;20361;-65
2023/06/23 02:24:28;0.00;0.00;0.62;0.00;0.00;0.62;4.50;4.10;;;33.10;28.90;;;;;;2278613;60;20624;-65
2023/06/23 02:27:13;0.00;0.00;0.62;0.00;0.00;0.62;3.50;3.20;;;33.10;28.90;;;;;;2275383;60;20361;-65
2023/06/23 02:29:59;0.00;0.00;0.62;0.00;0.00;0.62;3.87;3.57;;;33.00;28.90;;;;;;2274533;60;20377;-65
2023/06/23 02:32:45;0.00;0.00;0.62;0.00;0.00;0.62;4.23;3.90;;;33.00;28.90;;;;;;2275295;60;20393;-65
2023/06/23 02:35:33;0.00;0.00;0.62;0.00;0.00;0.62;5.33;4.20;;;33.00;28.90;;;;;;2278351;60;20965;-65
2023/06/23 02:38:21;0.00;0.00;0.62;0.00;0.00;0.62;4.63;4.23;;;33.00;28.90;;;;;;2277955;60;20401;-65
2023/06/23 02:41:08;0.00;0.00;0.62;0.00;0.00;0.62;4.93;4.43;;;33.00;28.90;;;;;;2275041;60;20990;-65
2023/06/23 02:43:59;0.00;0.00;0.62;0.00;0.00;0.62;4.47;4.07;;;33.00;29.00;;;;;;2278433;60;20437;-66
2023/06/23 02:46:52;0.00;0.00;0.62;0.00;0.00;0.62;4.37;4.07;;;33.00;29.00;;;;;;2278327;60;20357;-65
2023/06/23 02:49:38;0.00;0.00;0.62;0.00;0.00;0.62;4.10;3.80;;;33.00;29.00;;;;;;2278367;60;20423;-66
2023/06/23 02:52:28;0.00;0.00;0.62;0.00;0.00;0.62;5.23;4.73;;;33.00;29.00;;;;;;2278322;60;20381;-65
2023/06/23 02:55:19;0.00;0.00;0.62;0.00;0.00;0.62;4.23;3.83;;;32.90;28.90;;;;;;2275093;60;20998;-65
2023/06/23 02:58:09;0.00;0.00;0.62;0.00;0.00;0.62;4.90;4.50;;;32.90;29.00;;;;;;2275258;60;20353;-65
2023/06/23 03:00:56;0.00;0.00;0.62;0.00;0.00;0.62;5.03;4.63;;;32.90;29.00;;;;;;2278320;60;20923;-65
2023/06/23 03:03:42;0.00;0.00;0.62;0.00;0.00;0.62;4.53;4.13;;;32.90;29.00;;;;;;2274238;60;20774;-65
2023/06/23 03:06:27;0.00;0.00;0.62;0.00;0.00;0.62;4.93;4.53;;;32.90;29.00;;;;;;2276275;60;20411;-65
2023/06/23 03:09:13;0.00;0.00;0.62;0.00;0.00;0.62;5.27;4.77;;;32.90;29.00;;;;;;2277464;60;20506;-65
2023/06/23 03:11:58;0.00;0.00;0.62;0.00;0.00;0.62;5.07;4.67;;;32.90;29.00;;;;;;2275647;60;20515;-65
2023/06/23 03:14:45;0.00;0.00;0.62;0.00;0.00;0.62;4.67;4.27;;;32.90;29.00;;;;;;2275202;60;20379;-65
2023/06/23 03:17:34;0.00;0.00;0.62;0.00;0.00;0.62;5.20;4.80;;;32.90;29.00;;;;;;2278806;60;20361;-65
2023/06/23 03:20:26;0.00;0.00;0.62;0.00;0.00;0.62;4.90;4.50;;;32.90;29.10;;;;;;2274347;60;20405;-64
2023/06/23 03:23:13;0.00;0.00;0.62;0.00;0.00;0.62;5.70;5.30;;;32.90;29.10;;;;;;2275027;60;20353;-65
2023/06/23 03:26:01;0.00;0.00;0.62;0.00;0.00;0.62;5.73;5.23;;;32.90;29.10;;;;;;2275354;60;20403;-64
2023/06/23 03:28:48;0.00;0.00;0.62;0.00;0.00;0.62;5.70;5.20;;;32.80;29.10;;;;;;2274260;60;20460;-65
2023/06/23 03:31:37;0.00;0.00;0.62;0.00;0.00;0.62;6.10;5.60;;;32.90;29.20;;;;;;2278517;60;20362;-65
2023/06/23 03:34:23;0.00;0.00;0.62;0.00;0.00;0.62;5.07;4.67;;;32.80;29.10;;;;;;2272390;60;20369;-65
2023/06/23 03:37:12;0.00;0.00;0.62;0.00;0.00;0.62;5.87;5.37;;;32.80;29.70;;;;;;2274806;60;20361;-65
2023/06/23 03:40:08;0.00;0.00;0.62;0.00;0.00;0.62;5.20;4.77;;;32.80;29.10;;;;;;2277711;60;20423;-65
2023/06/23 03:43:04;0.00;0.00;0.62;0.00;0.00;0.62;5.13;4.73;;;32.80;29.20;;;;;;2277954;60;20350;-65
2023/06/23 03:45:58;0.00;0.00;0.62;0.00;0.00;0.62;5.47;5.00;;;32.80;29.20;;;;;;2278220;60;20361;-65
2023/06/23 03:48:44;0.00;0.00;0.62;0.00;0.00;0.62;5.27;4.80;;;32.80;29.20;;;;;;2274667;60;20437;-65
2023/06/23 03:51:34;0.00;0.00;0.62;0.00;0.00;0.62;5.00;4.53;;;32.80;29.20;;;;;;2278120;60;20354;-65
2023/06/23 03:54:20;0.00;0.00;0.62;0.00;0.00;0.62;5.00;4.60;;;32.80;29.20;;;;;;2278129;60;20385;-66
2023/06/23 03:57:09;0.00;0.00;0.62;0.00;0.00;0.62;5.37;4.97;;;32.70;29.20;;;;;;2278131;60;20447;-65
2023/06/23 03:59:56;0.00;0.00;0.62;0.00;0.00;0.62;5.30;4.80;;;32.80;29.20;;;;;;2277868;60;20749;-66
2023/06/23 04:02:45;0.00;0.00;0.62;0.00;0.00;0.62;5.30;4.80;;;32.80;29.20;;;;;;2278128;60;20423;-66
2023/06/23 04:05:32;0.00;0.00;0.62;0.00;0.00;0.62;5.57;5.17;;;32.80;29.20;;;;;;2278056;60;20361;-65
2023/06/23 04:08:19;0.00;0.00;0.62;0.00;0.00;0.62;5.47;4.90;;;32.70;29.70;;;;;;2277910;60;20769;-66
2023/06/23 04:11:06;0.00;0.00;0.62;0.00;0.00;0.62;5.80;5.30;;;32.70;29.20;;;;;;2276484;60;20423;-66
2023/06/23 04:13:52;0.00;0.00;0.62;0.00;0.00;0.62;5.73;5.23;;;32.70;29.20;;;;;;2277694;60;20381;-66
2023/06/23 04:16:42;0.00;0.00;0.62;0.00;0.00;0.62;5.77;5.27;;;32.70;29.20;;;;;;2278066;60;20907;-66
2023/06/23 04:19:29;0.00;0.00;0.62;0.00;0.00;0.62;5.10;4.70;;;32.70;29.20;;;;;;2277285;60;20411;-66
2023/06/23 04:22:18;0.00;0.00;0.62;0.00;0.00;0.62;5.47;4.97;;;32.70;29.20;;;;;;2275185;60;20376;-65
2023/06/23 04:25:05;0.00;0.00;0.62;0.00;0.00;0.62;5.40;4.90;;;32.70;29.20;;;;;;2278994;60;20356;-66
2023/06/23 04:27:55;0.00;0.00;0.62;0.00;0.00;0.62;5.50;5.10;;;32.70;29.20;;;;;;2277968;60;20400;-65
2023/06/23 04:30:41;0.00;0.00;0.62;0.00;0.00;0.62;4.70;4.30;;;32.70;29.20;;;;;;2279064;60;20374;-65
2023/06/23 04:33:28;0.00;0.00;0.62;0.00;0.00;0.62;5.00;4.60;;;32.60;29.20;;;;;;2279108;60;20385;-66
2023/06/23 04:36:16;0.00;0.00;0.62;0.00;0.00;0.62;5.00;4.50;;;32.60;29.20;;;;;;2279121;60;20362;-65
2023/06/23 04:39:11;0.00;0.00;0.62;0.00;0.00;0.62;4.00;3.60;;;32.60;29.20;;;;;;2278794;60;20380;-65
2023/06/23 04:42:01;0.00;0.00;0.62;0.00;0.00;0.62;3.70;3.00;;;32.60;29.20;;;;;;2275824;60;20364;-65
2023/06/23 04:44:52;0.00;0.00;0.62;0.00;0.00;0.62;3.10;2.77;;;32.60;29.20;;;;;;2278990;60;20354;-66
2023/06/23 04:47:40;0.00;0.00;0.62;0.00;0.00;0.62;2.70;2.50;;;32.60;29.20;;;;;;2279628;60;20459;-65
2023/06/23 04:50:29;0.00;0.00;0.62;0.00;0.00;0.62;2.80;2.53;;;32.60;29.20;;;;;;2278785;60;20520;-65
2023/06/23 04:53:21;0.00;0.00;0.62;0.00;0.00;0.62;2.60;2.40;;;32.60;29.20;;;;;;2278905;60;20425;-66
2023/06/23 04:56:08;0.00;0.00;0.62;0.00;0.00;0.62;2.40;2.00;;;32.60;29.20;;;;;;2279301;60;20373;-66
2023/06/23 04:58:57;0.00;0.00;0.62;0.00;0.00;0.62;2.30;2.10;;;32.60;29.20;;;;;;2278612;60;20365;-66
2023/06/23 05:01:43;0.00;0.00;0.62;0.00;0.00;0.62;2.27;1.70;;;32.60;29.20;;;;;;2279067;60;20369;-65
2023/06/23 05:04:32;0.00;0.00;0.62;0.00;0.00;0.62;2.40;1.90;;;32.60;29.20;;;;;;2279132;60;20376;-65
2023/06/23 05:07:20;0.00;0.00;0.62;0.00;0.00;0.62;4.77;1.93;;;32.60;29.20;;;;;;2278939;60;20495;-66
2023/06/23 05:10:06;0.00;0.00;0.62;0.00;0.00;0.62;2.33;1.70;;;32.50;29.10;;;;;;2275499;60;20400;-65
2023/06/23 05:12:53;0.00;0.00;0.62;0.00;0.00;0.62;2.27;1.63;;;32.50;29.00;;;;;;2278766;60;20953;-66
2023/06/23 05:15:38;0.00;0.00;0.62;0.00;0.00;0.62;1.87;1.50;;;32.50;29.00;;;;;;2276247;60;20370;-65
2023/06/23 05:18:24;0.00;0.00;0.62;0.00;0.00;0.62;1.90;1.63;;;32.50;29.00;;;;;;2274528;61;20362;-65
2023/06/23 05:21:10;0.00;0.00;0.62;0.00;0.00;0.62;2.10;1.67;;;32.50;28.90;;;;;;2274592;61;20404;-66
2023/06/23 05:23:59;0.00;0.00;0.62;0.00;0.00;0.62;2.03;1.40;;;32.50;28.90;;;;;;2274419;61;20358;-66
2023/06/23 05:26:44;0.00;0.00;0.62;0.00;0.00;0.62;3.20;1.90;;;32.50;28.90;;;;;;2274436;61;20366;-65
2023/06/23 05:29:32;0.00;0.00;0.62;0.00;0.00;0.62;2.90;1.70;;;32.40;28.80;;;;;;2274011;61;20420;-65
2023/06/23 05:32:18;0.00;0.00;0.62;0.00;0.00;0.62;1.90;1.30;;;32.40;28.90;;;;;;2274903;61;20381;-65
2023/06/23 05:35:05;0.00;0.00;0.62;0.00;0.00;0.62;1.70;1.50;;;32.40;28.80;;;;;;2274197;61;20380;-66
2023/06/23 05:37:51;0.00;0.00;0.62;0.00;0.00;0.62;2.13;1.53;;;32.40;28.90;;;;;;2274515;61;20385;-65
2023/06/23 05:40:38;0.00;0.00;0.62;0.00;0.00;0.62;2.00;1.37;;;32.30;28.80;;;;;;2274296;61;20379;-65
2023/06/23 05:43:23;0.00;0.00;0.62;0.00;0.00;0.62;1.60;1.20;;;32.30;28.80;;;;;;2274629;61;20896;-64
2023/06/23 05:46:13;0.00;0.00;0.62;0.00;0.00;0.62;1.80;1.30;;;32.30;28.80;;;;;;2274822;60;20374;-66
2023/06/23 05:49:05;0.00;0.00;0.62;0.00;0.00;0.62;2.00;1.30;;;32.30;28.80;;;;;;2274745;61;20369;-65
2023/06/23 05:51:56;0.00;0.00;0.62;0.00;0.00;0.62;1.67;1.30;;;32.30;28.80;;;;;;2275314;61;20350;-66
2023/06/23 05:54:45;0.00;0.00;0.62;0.00;0.00;0.62;1.60;1.30;;;32.30;28.80;;;;;;2275433;61;20366;-65
2023/06/23 05:57:35;0.00;0.00;0.62;0.00;0.00;0.62;2.77;1.73;;;32.20;28.70;;;;;;2275104;61;20438;-65
2023/06/23 06:00:21;0.00;0.00;0.62;0.00;0.00;0.62;1.70;1.43;;;32.20;28.80;;;;;;2274544;61;20386;-65
2023/06/23 06:03:12;0.00;0.00;0.62;0.00;0.00;0.62;1.93;1.30;;;32.20;28.70;;;;;;2275576;61;20396;-65
2023/06/23 06:05:59;0.00;0.00;0.62;0.00;0.00;0.62;1.90;1.57;;;32.20;28.70;;;;;;2275257;61;20350;-64
2023/06/23 06:08:45;0.00;0.00;0.62;0.00;0.00;0.62;2.27;1.77;;;32.20;28.80;;;;;;2272071;61;20354;-65
2023/06/23 06:11:31;0.00;0.00;0.62;0.00;0.00;0.62;2.87;1.70;;;32.20;28.70;;;;;;2275047;61;20407;-64
2023/06/23 06:14:19;0.00;0.00;0.62;0.00;0.00;0.62;2.40;1.67;;;32.20;29.30;;;;;;2274786;61;20369;-64
2023/06/23 06:17:07;0.00;0.00;0.62;0.00;0.00;0.62;2.27;1.80;;;32.10;28.70;;;;;;2275331;61;20496;-64
2023/06/23 06:19:56;0.00;0.00;0.62;0.00;0.00;0.62;2.07;1.70;;;32.10;28.70;;;;;;2274577;61;20856;-65
2023/06/23 06:22:43;0.00;0.00;0.62;0.00;0.00;0.62;2.60;2.03;;;32.10;28.70;;;;;;2275045;61;20370;-65
2023/06/23 06:25:29;0.00;0.00;0.62;0.00;0.00;0.62;2.60;2.40;;;32.10;28.70;;;;;;2275482;61;20355;-64
2023/06/23 06:28:16;0.00;0.00;0.62;0.00;0.00;0.62;2.57;2.10;;;32.10;28.60;;;;;;2275807;61;20427;-63
2023/06/23 06:31:06;0.00;0.00;0.62;0.00;0.00;0.62;2.70;2.40;;;32.10;28.50;;;;;;2275677;61;20417;-65
2023/06/23 06:33:54;0.00;0.00;0.62;0.00;0.00;0.62;3.60;2.80;;;32.10;28.50;;;;;;2275231;61;20382;-65
2023/06/23 06:36:40;0.00;0.00;0.62;0.00;0.00;0.62;2.70;2.33;;;32.00;28.50;;;;;;2275195;61;20362;-64
2023/06/23 06:39:26;0.00;0.00;0.62;0.00;0.00;0.62;3.03;2.67;;;32.00;28.40;;;;;;2275384;61;20770;-65
2023/06/23 06:42:11;0.00;0.00;0.62;0.00;0.00;0.62;3.03;2.73;;;32.00;28.40;;;;;;2275463;61;20400;-66
2023/06/23 06:44:56;0.00;0.00;0.62;0.00;0.00;0.62;3.20;2.90;;;32.00;28.40;;;;;;2275574;61;20362;-66
2023/06/23 06:47:44;0.00;0.00;0.62;0.00;0.00;0.62;3.13;2.83;;;31.90;28.30;;;;;;2275108;61;20361;-66
2023/06/23 06:50:30;0.00;0.00;0.62;0.00;0.00;0.62;3.10;2.80;;;31.90;28.30;;;;;;2274891;61;20418;-66
2023/06/23 06:53:16;0.00;0.00;0.62;0.00;0.00;0.62;2.67;2.47;;;31.90;28.30;;;;;;2274958;61;20396;-65
2023/06/23 06:56:01;0.00;0.00;0.62;0.00;0.00;0.62;2.90;2.37;;;31.90;28.90;;;;;;2274806;61;20844;-65
2023/06/23 06:58:46;0.00;0.00;0.62;0.00;0.00;0.62;4.50;2.80;;;31.80;28.30;;;;;;2273926;61;20394;-64
2023/06/23 07:01:31;0.00;0.00;0.62;0.00;0.00;0.62;3.40;3.10;;;31.80;28.30;;;;;;2274665;61;20363;-65
2023/06/23 07:04:19;0.00;0.00;0.62;0.00;0.00;0.62;2.93;2.63;;;31.80;28.30;;;;;;2274110;61;20354;-65
2023/06/23 07:07:04;0.00;0.00;0.62;0.00;0.00;0.62;3.17;2.70;;;31.80;28.40;;;;;;2274449;61;20907;-65
2023/06/23 07:09:49;0.00;0.00;0.62;0.00;0.00;0.62;3.20;2.70;;;31.80;28.90;;;;;;2270644;61;20381;-67
2023/06/23 07:12:34;0.00;0.00;0.62;0.00;0.00;0.62;3.20;2.87;;;31.80;28.40;;;;;;2274523;61;20358;-66
2023/06/23 07:15:19;0.00;0.00;0.62;0.00;0.00;0.62;3.03;2.73;;;31.80;28.40;;;;;;2276095;60;20369;-66
2023/06/23 07:18:04;0.00;0.00;0.62;0.00;0.00;0.62;2.90;2.60;;;31.80;28.40;;;;;;2278150;60;20441;-66
2023/06/23 07:20:50;0.00;0.00;0.62;0.00;0.00;0.62;3.63;3.33;;;31.70;28.30;;;;;;2277448;60;20381;-65
2023/06/23 07:23:34;0.00;0.00;0.62;0.00;0.00;0.62;3.60;2.80;;;31.70;28.40;;;;;;2278146;60;20456;-66
2023/06/23 07:26:19;0.00;0.00;0.62;0.00;0.00;0.62;3.30;3.00;;;31.70;28.40;;;;;;2278342;60;20387;-66
2023/06/23 07:29:04;0.00;0.00;0.62;0.00;0.00;0.62;3.60;2.80;;;31.70;28.40;;;;;;2278016;60;20388;-65
2023/06/23 07:31:49;0.00;0.00;0.62;0.00;0.00;0.62;3.13;2.90;;;31.70;28.40;;;;;;2278431;60;20511;-65
2023/06/23 07:34:34;0.00;0.00;0.62;0.00;0.00;0.62;2.93;2.63;;;31.70;28.40;;;;;;2278574;60;20427;-65
2023/06/23 07:37:20;0.00;0.00;0.62;0.00;0.00;0.62;3.67;3.20;;;31.70;28.40;;;;;;2278703;60;20406;-65
2023/06/23 07:40:07;0.00;0.00;0.62;0.00;0.00;0.62;3.27;2.90;;;31.70;28.40;;;;;;2278257;60;20433;-65
2023/06/23 07:42:52;0.00;0.00;0.62;0.00;0.00;0.62;3.13;2.80;;;31.70;28.40;;;;;;2278673;60;20348;-65
2023/06/23 07:45:36;0.00;0.00;0.62;0.00;0.00;0.62;3.60;3.27;;;31.70;28.50;;;;;;2279050;60;20361;-65
2023/06/23 07:48:21;0.00;0.00;0.62;0.00;0.00;0.62;3.63;3.03;;;31.70;28.50;;;;;;2278387;60;20353;-65
2023/06/23 07:51:06;0.00;0.00;0.62;0.00;0.00;0.62;3.40;3.10;;;31.70;28.50;;;;;;2278978;60;20376;-65
2023/06/23 07:53:52;0.00;0.00;0.62;0.00;0.00;0.62;3.00;2.67;;;31.70;28.50;;;;;;2278941;60;20393;-65
2023/06/23 07:56:36;0.00;0.00;0.62;0.00;0.00;0.62;3.00;2.70;;;31.70;28.50;;;;;;2279088;60;20452;-66
2023/06/23 07:59:22;0.00;0.00;0.62;0.00;0.00;0.62;3.17;2.60;;;31.60;28.50;;;;;;2275068;60;20452;-66
2023/06/23 08:02:06;0.00;0.00;0.62;0.00;0.00;0.62;3.20;2.90;;;31.60;28.50;;;;;;2278810;60;20430;-66
2023/06/23 08:04:51;0.00;0.00;0.62;0.00;0.00;0.62;3.60;2.80;;;31.60;28.50;;;;;;2279012;60;20358;-66
2023/06/23 08:07:36;0.00;0.00;0.62;0.00;0.00;0.62;3.83;3.10;;;31.60;28.50;;;;;;2278828;60;20771;-64
2023/06/23 08:10:22;0.00;0.00;0.62;0.00;0.00;0.62;3.70;3.40;;;31.60;28.50;;;;;;2278124;60;20397;-64
2023/06/23 08:13:06;0.00;0.00;0.62;0.00;0.00;0.62;3.20;2.90;;;31.60;28.50;;;;;;2278733;60;20953;-66
2023/06/23 08:15:51;0.00;0.00;0.62;0.00;0.00;0.62;3.83;3.43;;;31.60;28.50;;;;;;2278151;60;20878;-65
2023/06/23 08:18:36;0.00;0.00;0.62;0.00;0.00;0.62;3.83;3.50;;;31.60;28.50;;;;;;2278826;60;20357;-66
2023/06/23 08:21:21;0.00;0.00;0.62;0.00;0.00;0.62;3.87;3.33;;;31.60;28.50;;;;;;2278331;60;20385;-66
2023/06/23 08:24:06;0.00;0.00;0.62;0.00;0.00;0.62;3.47;3.17;;;31.60;28.60;;;;;;2278600;60;20358;-65
2023/06/23 08:26:53;0.00;0.00;0.62;0.00;0.00;0.62;3.50;3.20;;;31.60;28.60;;;;;;2278961;60;20369;-66
2023/06/23 08:29:38;0.00;0.00;0.62;0.00;0.00;0.62;4.53;3.00;;;31.60;29.10;;;;;;2278468;60;20417;-66
2023/06/23 08:32:24;0.00;0.00;0.62;0.00;0.00;0.62;3.40;2.87;;;31.60;28.60;;;;;;2278971;60;20411;-66
2023/06/23 08:35:09;0.00;0.00;0.62;0.00;0.00;0.62;3.60;3.30;;;31.60;28.60;;;;;;2278705;60;20357;-65
2023/06/23 08:37:54;0.00;0.00;0.62;0.00;0.00;0.62;2.97;2.67;;;31.60;28.60;;;;;;2275864;60;20397;-66
2023/06/23 08:40:40;0.00;0.00;0.62;0.00;0.00;0.62;2.90;2.60;;;31.60;28.60;;;;;;2278640;60;20434;-65
2023/06/23 08:43:27;0.00;0.00;0.62;0.00;0.00;0.62;3.23;2.90;;;31.60;28.60;;;;;;2278729;60;20361;-66
2023/06/23 08:46:14;0.00;0.00;0.62;0.00;0.00;0.62;3.13;2.83;;;31.60;28.60;;;;;;2278937;60;20365;-64
2023/06/23 08:49:08;0.00;0.00;0.62;0.00;0.00;0.62;3.10;2.70;;;31.60;28.60;;;;;;2278682;60;20389;-64
2023/06/23 08:51:54;0.00;0.00;0.62;0.00;0.00;0.62;3.07;2.77;;;31.60;28.60;;;;;;2278704;60;20419;-65
2023/06/23 08:54:39;0.00;0.00;0.62;0.00;0.00;0.62;3.33;3.03;;;31.60;28.60;;;;;;2278661;60;20373;-66
2023/06/23 08:57:24;0.00;0.00;0.62;0.00;0.00;0.62;3.13;2.83;;;31.60;28.60;;;;;;2278716;60;20430;-66
2023/06/23 09:00:12;0.00;0.00;0.62;0.00;0.00;0.62;3.00;2.70;;;31.60;28.60;;;;;;2278596;60;20415;-65
2023/06/23 09:02:57;0.00;0.00;0.62;0.00;0.00;0.62;3.93;3.33;;;31.60;28.60;;;;;;2278496;60;20383;-66
2023/06/23 09:05:42;0.00;0.00;0.62;0.00;0.00;0.62;3.07;2.77;;;31.60;28.60;;;;;;2278306;60;20375;-65
2023/06/23 09:08:27;0.00;0.00;0.62;0.00;0.00;0.62;3.00;2.57;;;31.60;28.60;;;;;;2278325;60;20380;-66
2023/06/23 09:11:12;0.00;0.00;0.62;0.00;0.00;0.62;2.77;2.50;;;31.60;28.60;;;;;;2278146;60;20414;-65
2023/06/23 09:14:00;0.00;0.00;0.62;0.00;0.00;0.62;3.23;2.93;;;31.60;28.60;;;;;;2279082;60;20412;-66
2023/06/23 09:16:46;0.00;0.00;0.62;0.00;0.00;0.62;3.60;2.70;;;31.60;28.60;;;;;;2273333;61;20369;-66
2023/06/23 09:19:33;0.00;0.00;0.62;0.00;0.00;0.62;2.57;2.37;;;31.60;28.60;;;;;;2274063;61;20906;-66
2023/06/23 09:22:19;0.00;0.00;0.62;0.00;0.00;0.62;3.03;2.73;;;31.60;28.60;;;;;;2274712;61;20357;-66
2023/06/23 09:25:04;0.00;0.00;0.62;0.00;0.00;0.62;3.27;2.97;;;31.60;28.60;;;;;;2274438;61;20351;-65
2023/06/23 09:27:49;0.00;0.00;0.62;0.00;0.00;0.62;3.10;2.80;;;31.60;28.60;;;;;;2274813;61;20410;-65
2023/06/23 09:30:34;0.00;0.00;0.62;0.00;0.00;0.62;3.27;2.97;;;31.60;28.60;;;;;;2274104;61;20418;-65
2023/06/23 09:33:21;0.00;0.00;0.62;0.00;0.00;0.62;3.07;2.77;;;31.60;28.60;;;;;;2274796;61;20378;-65
2023/06/23 09:36:06;0.00;0.00;0.62;0.00;0.00;0.62;3.47;2.90;;;31.60;28.60;;;;;;2271771;61;20366;-66
2023/06/23 09:38:52;0.00;0.00;0.62;0.00;0.00;0.62;3.40;2.70;;;31.60;28.60;;;;;;2273926;61;20450;-65
2023/06/23 09:41:37;0.00;0.00;0.62;0.00;0.00;0.62;3.30;3.00;;;31.60;28.60;;;;;;2274650;61;20941;-65
2023/06/23 09:44:31;0.00;0.00;0.62;0.00;0.00;0.62;4.53;2.97;;;31.60;28.60;;;;;;2274314;61;20350;-66
2023/06/23 09:47:18;0.00;0.00;0.62;0.00;0.00;0.62;2.90;2.70;;;31.60;28.60;;;;;;2274938;61;20358;-66
2023/06/23 09:50:15;0.00;0.00;0.62;0.00;0.00;0.62;2.67;2.47;;;31.60;28.60;;;;;;2274198;61;20824;-66
2023/06/23 09:53:03;0.00;0.00;0.62;0.00;0.00;0.62;3.27;2.87;;;31.50;28.50;;;;;;2274260;61;20414;-66
2023/06/23 09:55:48;0.00;0.00;0.62;0.00;0.00;0.62;3.10;2.80;;;31.50;28.50;;;;;;2274314;61;21005;-65
2023/06/23 09:58:38;0.00;0.00;0.62;0.00;0.00;0.62;2.70;2.50;;;31.50;28.50;;;;;;2274501;61;20884;-65
2023/06/23 10:01:23;0.00;0.00;0.62;0.00;0.00;0.62;2.67;2.27;;;31.50;28.60;;;;;;2274032;61;20378;-65
2023/06/23 10:04:08;0.00;0.00;0.62;0.00;0.00;0.62;2.90;2.27;;;31.50;28.60;;;;;;2274450;61;20357;-65
2023/06/23 10:06:54;0.00;0.00;0.62;0.00;0.00;0.62;2.50;2.30;;;31.50;28.60;;;;;;2274789;61;20354;-65
2023/06/23 10:09:48;0.00;0.00;0.62;0.00;0.00;0.62;3.00;2.70;;;31.50;28.60;;;;;;2274031;61;20382;-66
2023/06/23 10:12:33;0.00;0.00;0.62;0.00;0.00;0.62;3.03;2.73;;;31.50;28.60;;;;;;2274437;61;20867;-65
2023/06/23 10:15:19;0.00;0.00;0.62;0.00;0.00;0.62;3.20;2.80;;;31.50;28.60;;;;;;2271702;61;20936;-64
2023/06/23 10:18:04;0.00;0.00;0.62;0.00;0.00;0.62;2.50;2.27;;;31.50;28.60;;;;;;2274277;61;20443;-65
2023/06/23 10:20:49;0.00;0.00;0.62;0.00;0.00;0.62;3.07;2.77;;;31.50;28.60;;;;;;2274995;61;20385;-65
2023/06/23 10:23:37;0.00;0.00;0.62;0.00;0.00;0.62;2.93;2.63;;;31.50;28.60;;;;;;2274813;61;20350;-65
2023/06/23 10:26:23;0.00;0.00;0.62;0.00;0.00;0.62;3.40;3.10;;;31.50;28.60;;;;;;2274491;61;20427;-65
2023/06/23 10:29:13;0.00;0.00;0.62;0.00;0.00;0.62;3.80;2.93;;;31.50;28.60;;;;;;2273891;61;20394;-65
2023/06/23 10:31:59;0.00;0.00;0.62;0.00;0.00;0.62;2.90;2.60;;;31.50;28.70;;;;;;2275501;60;20361;-65
2023/06/23 10:34:45;0.00;0.00;0.62;0.00;0.00;0.62;3.53;3.23;;;31.50;28.60;;;;;;2275336;61;20502;-65
2023/06/23 10:37:30;0.00;0.00;0.62;0.00;0.00;0.62;3.00;2.53;;;31.50;28.70;;;;;;2275755;61;20358;-64
2023/06/23 10:40:24;0.00;0.00;0.62;0.00;0.00;0.62;3.37;3.07;;;31.50;28.60;;;;;;2275357;61;20382;-65
2023/06/23 10:43:11;0.00;0.00;0.62;0.00;0.00;0.62;3.30;3.00;;;31.50;28.60;;;;;;2275746;61;20445;-65
2023/06/23 10:45:57;0.00;0.00;0.62;0.00;0.00;0.62;3.07;2.70;;;31.50;28.70;;;;;;2275827;61;20423;-64
2023/06/23 10:48:43;0.00;0.00;0.62;0.00;0.00;0.62;3.90;3.60;;;31.50;28.70;;;;;;2274847;61;20401;-65
2023/06/23 10:51:28;0.00;0.00;0.62;0.00;0.00;0.62;3.60;2.73;;;31.50;28.70;;;;;;2275758;61;20497;-65
2023/06/23 10:54:26;0.00;0.00;0.62;0.00;0.00;0.62;4.63;3.50;;;31.50;28.70;;;;;;2276070;61;20478;-65
2023/06/23 10:57:13;0.00;0.00;0.62;0.00;0.00;0.62;3.77;3.37;;;31.50;28.80;;;;;;2272707;61;20450;-66
2023/06/23 11:00:03;0.00;0.00;0.62;0.00;0.00;0.62;3.43;3.00;;;31.50;28.70;;;;;;2275096;61;20474;-65